This is the latest recevied weather packets stored in our database for station/object OZ1IEP-5. If no packets are shown the sender has not sent any weather packets the latest 10 day(s).
| Time | Temp. | Humidity | Pressure | Rain* | Wind** | Luminosity | Snow |
|---|---|---|---|---|---|---|---|
| 1778076008 | 13.33° C | 57% | 1009 hPa | 0 mm | - | 135 W/m² | - |
| 1778075405 | 13.33° C | 60% | 1008.8 hPa | 0 mm | - | 179 W/m² | - |
| 1778074805 | 13.33° C | 59% | 1008.8 hPa | 0 mm | - | 195 W/m² | - |
| 1778074208 | 13.33° C | 56% | 1008.8 hPa | 0 mm | - | 156 W/m² | - |
| 1778073606 | 13.33° C | 58% | 1008.7 hPa | 0 mm | - | 232 W/m² | - |
| 1778073006 | 12.78° C | 61% | 1008.8 hPa | 0 mm | - | 237 W/m² | - |
| 1778072408 | 12.78° C | 61% | 1008.8 hPa | 0 mm | - | 209 W/m² | - |
| 1778071805 | 12.78° C | 59% | 1008.7 hPa | 0 mm | - | 151 W/m² | - |
| 1778071206 | 12.78° C | 59% | 1008.7 hPa | 0 mm | - | 111 W/m² | - |
| 1778070608 | 13.33° C | 56% | 1008.5 hPa | 0 mm | - | 162 W/m² | - |
| 1778070006 | 14.44° C | 58% | 1008.4 hPa | 0 mm | - | 534 W/m² | - |
| 1778069405 | 14.44° C | 57% | 1008.5 hPa | 0 mm | - | 795 W/m² | - |
| 1778068808 | 14.44° C | 57% | 1008.5 hPa | 0 mm | - | 761 W/m² | - |
| 1778068206 | 13.89° C | 55% | 1008.6 hPa | 0 mm | - | 773 W/m² | - |
| 1778067605 | 13.89° C | 55% | 1008.7 hPa | 0 mm | - | 853 W/m² | - |
| 1778067008 | 13.89° C | 56% | 1008.7 hPa | 0 mm | - | 798 W/m² | - |
| 1778066406 | 13.33° C | 56% | 1008.8 hPa | 0 mm | - | 763 W/m² | - |
| 1778065805 | 13.33° C | 57% | 1008.7 hPa | 0 mm | - | 624 W/m² | - |
| 1778065208 | 13.89° C | 57% | 1008.7 hPa | 0 mm | - | 483 W/m² | - |
| 1778064605 | 13.33° C | 59% | 1008.8 hPa | 0 mm | - | 770 W/m² | - |
| 1778064005 | 13.33° C | 56% | 1008.8 hPa | 0 mm | - | 684 W/m² | - |
| 1778063408 | 13.33° C | 54% | 1008.8 hPa | 0 mm | - | 490 W/m² | - |
| 1778062806 | 13.33° C | 53% | 1008.8 hPa | 0 mm | - | 545 W/m² | - |
| 1778062206 | 13.33° C | 50% | 1008.8 hPa | 0 mm | - | 610 W/m² | - |
| 1778061607 | 12.78° C | 46% | 1008.8 hPa | 0 mm | - | 638 W/m² | - |
* Rain latest hour (hover to see other rain measurements)
** Current wind speed in m/s (hover to see current wind gust speed)